Terminal Aerodrome Forecast
Issued by NWS Atlanta, GA

Home | Current Version | Previous Version | Text Only | Print | Product List | Glossary On
Versions: 1 2 3 4 5 6 7 8 9 10 11 12 13 14 15 16 17 18 19 20 21 22 23 24 25 26 27 28 29 30 31
420
FTUS42 KFFC 240548
TAFAHN
TAF
KAHN 240548Z 2406/2506 06010KT 5SM BR VCSH OVC006
     FM240800 24005KT P6SM BKN004
      TEMPO 2410/2412 2SM BR OVC004
     FM241400 24006KT P6SM VCSH OVC012
     FM241800 26010KT P6SM BKN035 PROB30 2419/2423 5SM -SHRA OVC025=

USA.gov is the U.S. government's official web portal to all federal, state and local government web resources and services.